Time;durP1;ratioP1;P1;durP2;ratioP2;P2;SDS_P1;SDS_P2;PMS_P1;PMS_P2;Temp;Humidity;BMP_temperature;BMP_pressure;BME280_temperature;BME280_humidity;BME280_pressure;Samples;Min_cycle;Max_cycle;Signal;HPM_P1;HPM_P2
2023/05/06 00:02:04;;;;;;;;;4.00;4.00;;;;;15.97;64.15;100120.69;5078565;28;45544;-74
2023/05/06 00:04:30;;;;;;;;;3.00;3.00;;;;;16.03;63.97;100133.84;5078070;28;46404;-74
2023/05/06 00:06:56;;;;;;;;;2.00;2.00;;;;;16.08;64.76;100152.31;5093303;27;45514;-74
2023/05/06 00:09:23;;;;;;;;;3.00;3.00;;;;;15.93;65.21;100155.78;5078163;27;45626;-74
2023/05/06 00:11:49;;;;;;;;;1.67;1.67;;;;;15.87;64.78;100146.13;5078296;27;45378;-74
2023/05/06 00:14:15;;;;;;;;;1.33;1.33;;;;;15.76;64.92;100118.03;5077861;27;45414;-73
2023/05/06 00:16:40;;;;;;;;;3.00;1.33;;;;;15.79;64.59;100113.63;5077780;27;45440;-73
2023/05/06 00:19:06;;;;;;;;;2.00;2.00;;;;;15.84;65.29;100124.19;5093126;27;45455;-74
2023/05/06 00:21:32;;;;;;;;;3.00;2.33;;;;;15.86;65.05;100123.31;5078446;27;45523;-73
2023/05/06 00:23:57;;;;;;;;;3.00;2.00;;;;;15.75;65.56;100117.13;5077809;28;45417;-73
2023/05/06 00:26:23;;;;;;;;;2.00;2.00;;;;;15.49;66.46;100081.06;5093069;27;45310;-73
2023/05/06 00:28:48;;;;;;;;;2.00;2.00;;;;;15.51;66.95;100110.03;5077989;28;45401;-73
2023/05/06 00:31:14;;;;;;;;;3.00;3.00;;;;;15.47;66.14;100093.34;5076531;28;45289;-73
2023/05/06 00:33:40;;;;;;;;;2.33;2.00;;;;;15.56;65.68;100091.59;5077361;27;46507;-73
2023/05/06 00:36:06;;;;;;;;;2.00;2.00;;;;;15.66;65.54;100103.94;5078027;27;45518;-73
2023/05/06 00:38:31;;;;;;;;;2.33;2.33;;;;;15.56;65.79;100081.06;5077825;27;45292;-73
2023/05/06 00:40:57;;;;;;;;;1.50;1.25;;;;;15.48;66.10;100073.19;5077956;27;45429;-73
2023/05/06 00:43:22;;;;;;;;;1.25;1.25;;;;;15.53;65.98;100079.31;5077452;27;45987;-73
2023/05/06 00:45:49;;;;;;;;;2.00;2.00;;;;;15.48;65.55;100065.28;5077611;28;45345;-73
2023/05/06 00:48:16;;;;;;;;;1.00;1.00;;;;;15.55;66.04;100077.56;5077467;27;45504;-73
2023/05/06 00:50:43;;;;;;;;;1.00;1.00;;;;;15.51;66.10;100084.56;5077555;27;45297;-73
2023/05/06 00:53:12;;;;;;;;;2.00;2.00;;;;;15.49;66.01;100080.19;5077361;27;46309;-73
2023/05/06 00:55:38;;;;;;;;;2.00;1.33;;;;;15.51;65.67;100067.91;5077746;27;45248;-73
2023/05/06 00:58:04;;;;;;;;;2.00;2.00;;;;;15.52;66.14;100064.41;5077631;27;45316;-73
2023/05/06 01:00:30;;;;;;;;;2.00;2.00;;;;;15.48;66.22;100062.66;5077575;27;45444;-73
2023/05/06 01:02:56;;;;;;;;;2.75;2.75;;;;;15.54;66.70;100077.56;5077165;27;46496;-73
2023/05/06 01:05:24;;;;;;;;;2.00;2.00;;;;;15.40;66.00;100053.84;5078732;28;45466;-73
2023/05/06 01:08:16;;;;;;;;;0.33;0.33;;;;;15.45;65.98;100076.66;5080983;28;45222;-73
2023/05/06 01:11:01;;;;;;;;;2.00;2.00;;;;;15.35;66.28;100063.50;5080956;27;45403;-73
2023/05/06 01:13:34;;;;;;;;;3.00;3.00;;;;;15.43;66.25;100069.66;5080421;27;46146;-73
2023/05/06 01:16:01;;;;;;;;;2.00;2.00;;;;;15.43;65.86;100067.88;5080583;27;45344;-73
2023/05/06 01:18:31;;;;;;;;;2.00;1.00;;;;;15.40;66.06;100059.09;5080766;27;45393;-73
2023/05/06 01:20:58;;;;;;;;;2.00;2.00;;;;;15.35;65.88;100045.94;5079502;28;45264;-73
2023/05/06 01:23:24;;;;;;;;;3.00;2.00;;;;;15.30;66.27;100038.03;5080296;27;45365;-73
2023/05/06 01:25:50;;;;;;;;;3.00;3.00;;;;;15.33;66.56;100052.94;5080331;28;45492;-73
2023/05/06 01:28:16;;;;;;;;;54.00;40.25;;;;;15.31;66.29;100054.69;5080598;27;45577;-73
2023/05/06 01:30:59;;;;;;;;;7.75;6.75;;;;;15.37;66.69;100051.22;5080829;27;45239;-73
2023/05/06 01:33:42;;;;;;;;;2.67;2.33;;;;;15.17;67.18;100051.16;5080179;27;45398;-73
2023/05/06 01:36:15;;;;;;;;;3.25;2.25;;;;;14.94;67.36;100041.44;5079374;28;45565;-72
2023/05/06 01:39:00;;;;;;;;;3.00;3.00;;;;;14.74;68.43;100027.31;5080245;27;45472;-73
2023/05/06 01:41:26;;;;;;;;;2.00;2.00;;;;;14.57;69.16;100017.59;5080504;27;45521;-73
2023/05/06 01:43:53;;;;;;;;;3.00;3.00;;;;;14.60;69.24;100016.72;5080039;27;46123;-73
2023/05/06 01:46:23;;;;;;;;;1.67;1.67;;;;;14.61;69.16;100011.47;5079999;27;45438;-73
2023/05/06 01:48:52;;;;;;;;;3.25;1.25;;;;;14.68;69.35;100009.75;5080076;28;45465;-73
2023/05/06 01:51:20;;;;;;;;;2.50;2.00;;;;;14.84;68.79;100026.47;5080175;27;45569;-73
2023/05/06 01:53:45;;;;;;;;;3.25;2.00;;;;;14.86;68.34;100020.38;5078666;28;45936;-73
2023/05/06 01:56:11;;;;;;;;;2.00;2.00;;;;;14.82;68.80;100017.69;5080429;27;45842;-74
2023/05/06 01:58:37;;;;;;;;;3.00;2.00;;;;;14.76;68.29;100002.75;5080508;27;45418;-73
2023/05/06 02:01:03;;;;;;;;;3.00;3.00;;;;;14.87;68.23;100015.97;5080109;28;45469;-73
2023/05/06 02:03:28;;;;;;;;;2.00;1.67;;;;;14.82;68.53;100010.72;5078448;28;46993;-73
2023/05/06 02:05:54;;;;;;;;;3.00;3.00;;;;;14.85;67.97;100002.81;5078553;28;45362;-73
2023/05/06 02:08:20;;;;;;;;;2.00;2.00;;;;;14.73;68.66;100002.78;5080216;27;45315;-73
2023/05/06 02:10:45;;;;;;;;;2.33;2.00;;;;;14.79;68.54;100015.06;5080110;27;45433;-73
2023/05/06 02:13:11;;;;;;;;;3.00;2.00;;;;;14.84;68.74;100019.47;5078644;28;47910;-73
2023/05/06 02:15:36;;;;;;;;;3.00;2.00;;;;;14.75;68.63;100002.78;5078646;27;45406;-73
2023/05/06 02:18:02;;;;;;;;;1.33;1.33;;;;;14.70;68.68;99986.97;5079911;27;45488;-73
2023/05/06 02:20:27;;;;;;;;;4.00;2.67;;;;;14.86;68.67;100001.06;5078640;28;45563;-73
2023/05/06 02:22:53;;;;;;;;;1.67;1.67;;;;;14.73;67.65;99959.84;5079673;28;46631;-74
2023/05/06 02:25:18;;;;;;;;;2.00;2.00;;;;;14.95;67.69;99992.34;5078276;28;45391;-73
2023/05/06 02:27:44;;;;;;;;;2.00;2.00;;;;;14.91;67.54;99989.69;5078480;28;45646;-74
2023/05/06 02:30:10;;;;;;;;;1.00;1.00;;;;;15.05;67.40;100010.78;5080071;27;45251;-73
2023/05/06 02:32:36;;;;;;;;;1.00;1.00;;;;;15.08;67.75;100002.91;5079331;27;47784;-73
2023/05/06 02:35:02;;;;;;;;;2.00;2.00;;;;;15.00;67.72;99994.13;5078136;27;45524;-72
2023/05/06 02:37:27;;;;;;;;;1.00;1.00;;;;;15.00;67.83;99980.06;5077171;28;45559;-72
2023/05/06 02:39:53;;;;;;;;;2.00;2.00;;;;;15.06;68.16;100001.13;5078806;28;45175;-73
2023/05/06 02:42:20;;;;;;;;;2.67;1.33;;;;;15.13;67.62;100007.28;5078403;28;45842;-71
2023/05/06 02:44:46;;;;;;;;;0.00;0.00;;;;;15.13;67.95;100002.03;5078420;28;45434;-73
2023/05/06 02:47:11;;;;;;;;;2.00;2.00;;;;;15.10;67.58;99987.13;5078617;28;45544;-72
2023/05/06 02:49:37;;;;;;;;;1.67;1.67;;;;;15.18;67.20;99990.66;5077058;28;45488;-72
2023/05/06 02:52:03;;;;;;;;;2.00;2.00;;;;;15.16;67.57;99978.34;5076674;28;46701;-72
2023/05/06 02:54:29;;;;;;;;;2.00;2.00;;;;;15.17;68.23;99990.63;5078240;27;45378;-72
2023/05/06 02:56:55;;;;;;;;;2.00;2.00;;;;;15.24;67.77;99988.03;5078286;28;45362;-72
2023/05/06 02:59:20;;;;;;;;;2.00;2.00;;;;;15.28;67.52;99992.44;5079342;27;45465;-73
2023/05/06 03:01:46;;;;;;;;;1.00;1.00;;;;;15.30;67.68;99984.53;5078572;28;45436;-73
2023/05/06 03:04:12;;;;;;;;;2.00;2.00;;;;;15.26;67.41;99986.28;5079425;28;45279;-73
2023/05/06 03:06:38;;;;;;;;;2.00;2.00;;;;;15.23;67.30;99981.00;5078724;27;45424;-73
2023/05/06 03:09:03;;;;;;;;;2.00;2.00;;;;;15.13;67.71;99970.47;5077724;28;45485;-72
2023/05/06 03:11:30;;;;;;;;;3.33;3.00;;;;;15.04;67.95;99973.94;5078163;28;45396;-73
2023/05/06 03:13:56;;;;;;;;;3.33;2.00;;;;;15.08;68.21;99984.50;5078630;28;45576;-73
2023/05/06 03:16:22;;;;;;;;;2.00;2.00;;;;;15.03;68.87;99966.94;5078776;28;45438;-73
2023/05/06 03:18:47;;;;;;;;;2.75;2.00;;;;;15.15;68.08;99981.88;5078743;28;45476;-73
2023/05/06 03:21:13;;;;;;;;;1.00;1.00;;;;;15.16;67.58;99960.84;5077553;28;48153;-73
2023/05/06 03:23:38;;;;;;;;;2.00;1.00;;;;;15.23;67.23;99966.97;5077747;28;45267;-73
2023/05/06 03:26:04;;;;;;;;;2.00;1.67;;;;;15.23;67.29;99952.06;5077796;27;45556;-72
2023/05/06 03:28:30;;;;;;;;;1.00;1.00;;;;;15.30;67.56;99955.59;5077446;27;45774;-72
2023/05/06 03:30:55;;;;;;;;;2.00;2.00;;;;;15.25;67.96;99934.50;5077537;28;45418;-73
2023/05/06 03:33:21;;;;;;;;;2.00;2.00;;;;;15.31;67.84;99945.03;5077738;28;46021;-73
2023/05/06 03:35:46;;;;;;;;;2.00;2.00;;;;;15.19;68.39;99926.63;5077015;27;45491;-74
2023/05/06 03:38:12;;;;;;;;;2.00;2.00;;;;;15.28;68.40;99939.78;5077327;28;45540;-71
2023/05/06 03:40:37;;;;;;;;;1.67;1.33;;;;;15.28;68.03;99931.91;5076345;27;45548;-71
2023/05/06 03:43:03;;;;;;;;;1.50;1.50;;;;;15.02;69.05;99909.91;5076755;27;45488;-72
2023/05/06 03:45:28;;;;;;;;;3.00;2.00;;;;;15.15;68.61;99938.00;5076706;28;45893;-73
2023/05/06 03:47:54;;;;;;;;;2.67;2.00;;;;;15.09;68.53;99916.97;5076826;28;45346;-73
2023/05/06 03:50:19;;;;;;;;;2.25;2.25;;;;;15.13;68.50;99918.72;5076600;27;46134;-72
2023/05/06 03:52:45;;;;;;;;;2.00;2.00;;;;;15.09;69.03;99911.69;5076732;28;45264;-73
2023/05/06 03:55:10;;;;;;;;;2.33;2.00;;;;;15.18;68.56;99930.13;5074037;28;45358;-73
2023/05/06 03:57:36;;;;;;;;;2.00;2.00;;;;;15.06;68.69;99906.41;5076664;27;45355;-73
2023/05/06 04:00:02;;;;;;;;;2.67;2.00;;;;;14.88;68.26;99881.88;5075028;28;46171;-72
2023/05/06 04:02:28;;;;;;;;;2.67;2.00;;;;;15.07;68.35;99924.84;5076236;28;45365;-73
2023/05/06 04:04:53;;;;;;;;;2.67;2.00;;;;;15.00;68.79;99911.66;5076253;28;45459;-72
2023/05/06 04:07:19;;;;;;;;;2.00;2.00;;;;;14.93;68.84;99904.66;5076140;28;45698;-73
2023/05/06 04:09:44;;;;;;;;;2.33;2.33;;;;;15.05;68.75;99931.84;5076078;28;47750;-73
2023/05/06 04:12:10;;;;;;;;;4.00;3.00;;;;;14.89;69.49;99904.66;5077049;28;45439;-72
2023/05/06 04:14:35;;;;;;;;;3.00;2.00;;;;;14.88;69.88;99915.16;5076044;28;45494;-71
2023/05/06 04:17:01;;;;;;;;;3.00;3.00;;;;;14.76;70.17;99925.66;5077341;27;45218;-72
2023/05/06 04:19:26;;;;;;;;;2.50;2.25;;;;;14.57;71.37;99909.81;5077164;28;46232;-71
2023/05/06 04:21:52;;;;;;;;;2.00;2.00;;;;;14.57;70.25;99922.97;5077057;28;45423;-71
2023/05/06 04:24:18;;;;;;;;;4.00;3.00;;;;;14.54;71.15;99917.66;5078069;28;45472;-71
2023/05/06 04:26:44;;;;;;;;;3.00;3.00;;;;;14.50;71.98;99924.66;5077479;28;45480;-71
2023/05/06 04:29:09;;;;;;;;;3.50;3.00;;;;;14.44;70.97;99913.22;5075102;28;45561;-71
2023/05/06 04:31:35;;;;;;;;;2.00;2.00;;;;;14.19;70.61;99857.97;5076733;28;45296;-72
2023/05/06 04:34:01;;;;;;;;;2.50;2.00;;;;;14.35;71.71;99887.81;5076756;27;45511;-72
2023/05/06 04:36:27;;;;;;;;;2.25;2.25;;;;;14.43;70.93;99903.63;5076795;27;45631;-73
2023/05/06 04:38:52;;;;;;;;;3.00;2.25;;;;;14.27;71.25;99879.03;5076347;27;45481;-74
2023/05/06 04:41:19;;;;;;;;;2.25;2.25;;;;;14.40;71.83;99904.44;5077757;27;45538;-72
2023/05/06 04:43:45;;;;;;;;;2.00;2.00;;;;;14.41;72.07;99910.63;5077891;27;45542;-73
2023/05/06 04:46:10;;;;;;;;;4.00;3.00;;;;;14.45;72.18;99910.63;5077776;28;45394;-71
2023/05/06 04:48:36;;;;;;;;;3.00;2.67;;;;;14.51;71.87;99912.41;5077088;27;45547;-71
2023/05/06 04:51:05;;;;;;;;;3.00;3.00;;;;;14.56;71.76;99915.03;5077372;27;45500;-71
2023/05/06 04:53:31;;;;;;;;;3.00;3.00;;;;;14.52;71.73;99903.63;5077680;27;45321;-71
2023/05/06 04:55:56;;;;;;;;;2.00;2.00;;;;;14.56;71.77;99904.53;5077599;27;45464;-71
2023/05/06 04:58:22;;;;;;;;;4.00;4.00;;;;;14.68;72.89;99925.63;5075910;28;47926;-71
2023/05/06 05:00:48;;;;;;;;;4.50;4.00;;;;;14.68;72.56;99920.34;5077518;28;45444;-73
2023/05/06 05:03:13;;;;;;;;;2.00;2.00;;;;;14.68;72.30;99923.00;5092734;27;45583;-72
2023/05/06 05:05:39;;;;;;;;;3.25;3.25;;;;;14.56;71.98;99891.38;5077262;27;45514;-72
2023/05/06 05:08:05;;;;;;;;;3.00;3.00;;;;;14.76;71.90;99912.50;5077118;27;45349;-72
2023/05/06 05:10:30;;;;;;;;;3.50;2.75;;;;;14.83;71.91;99923.03;5076927;27;45845;-72
2023/05/06 05:12:57;;;;;;;;;3.25;2.50;;;;;14.86;71.46;99912.53;5077029;27;45512;-71
2023/05/06 05:15:22;;;;;;;;;3.25;2.50;;;;;14.85;71.45;99902.00;5077219;27;45324;-71
2023/05/06 05:17:49;;;;;;;;;5.00;4.50;;;;;14.97;70.81;99896.78;5076882;27;46235;-72
2023/05/06 05:20:15;;;;;;;;;4.75;3.25;;;;;15.08;70.81;99902.94;5076995;27;45398;-72
2023/05/06 05:22:41;;;;;;;;;3.75;3.00;;;;;15.21;70.48;99916.09;5092352;27;45506;-72
2023/05/06 05:25:06;;;;;;;;;5.00;3.00;;;;;15.18;69.77;99887.16;5077400;27;45405;-72
2023/05/06 05:27:32;;;;;;;;;3.00;3.00;;;;;15.34;69.32;99881.03;5092528;27;46385;-73
2023/05/06 05:29:59;;;;;;;;;4.00;3.25;;;;;15.48;69.03;99886.28;5085736;27;45510;-74
2023/05/06 05:32:25;;;;;;;;;3.00;3.00;;;;;15.67;68.59;99879.22;5081408;27;45381;-71
2023/05/06 05:34:51;;;;;;;;;4.75;3.00;;;;;15.94;68.25;99899.41;5076440;27;45515;-71
2023/05/06 05:37:17;;;;;;;;;5.00;4.00;;;;;15.87;67.79;99861.66;5076182;27;45665;-74
2023/05/06 05:39:42;;;;;;;;;3.25;3.25;;;;;16.15;67.56;99887.06;5075686;27;45359;-72
2023/05/06 05:42:08;;;;;;;;;5.00;4.00;;;;;16.32;67.29;99898.41;5075990;28;45486;-73
2023/05/06 05:44:33;;;;;;;;;4.00;4.00;;;;;16.41;66.91;99887.84;5074925;28;45608;-73
2023/05/06 05:46:59;;;;;;;;;3.33;3.00;;;;;16.50;66.48;99871.97;5076098;28;46450;-75
2023/05/06 05:49:24;;;;;;;;;10.75;10.00;;;;;16.76;66.01;99907.88;5076280;28;45386;-74
2023/05/06 05:51:50;;;;;;;;;5.67;4.00;;;;;16.52;66.14;99886.91;5079163;27;45541;-73
2023/05/06 05:54:15;;;;;;;;;5.00;5.00;;;;;16.65;66.58;99907.03;5078342;28;45386;-72
2023/05/06 05:56:41;;;;;;;;;4.00;4.00;;;;;16.71;66.18;99899.09;5077916;28;47344;-72
2023/05/06 05:59:07;;;;;;;;;3.33;3.33;;;;;16.89;65.66;99908.69;5079303;28;45575;-73
2023/05/06 06:01:32;;;;;;;;;3.00;3.00;;;;;16.98;65.59;99906.00;5086228;27;45418;-73
2023/05/06 06:03:58;;;;;;;;;3.67;3.00;;;;;17.19;65.60;99910.28;5079318;27;45417;-74
2023/05/06 06:06:25;;;;;;;;;7.00;6.75;;;;;17.38;64.78;99915.41;5079108;27;46744;-74
2023/05/06 06:08:51;;;;;;;;;6.00;6.00;;;;;17.44;64.86;99899.53;5077906;27;45515;-73
2023/05/06 06:11:16;;;;;;;;;3.33;3.33;;;;;17.70;64.29;99915.13;5085371;27;46124;-75
2023/05/06 06:13:42;;;;;;;;;4.00;4.00;;;;;17.88;63.70;99919.41;5078523;27;45598;-73
2023/05/06 06:16:07;;;;;;;;;6.00;6.00;;;;;18.07;63.98;99925.38;5078757;28;46394;-74
2023/05/06 06:18:33;;;;;;;;;3.67;3.67;;;;;18.14;63.35;99907.69;5077651;28;45523;-74
2023/05/06 06:20:59;;;;;;;;;3.33;3.33;;;;;18.18;62.74;99893.53;5078766;27;45272;-73
2023/05/06 06:23:25;;;;;;;;;5.00;4.67;;;;;18.45;62.48;99910.84;5079141;27;45217;-73
2023/05/06 06:25:50;;;;;;;;;3.67;3.67;;;;;18.76;61.86;99926.31;5077762;28;45398;-73
2023/05/06 06:28:16;;;;;;;;;3.67;3.67;;;;;19.00;61.19;99915.44;5078619;28;45490;-73
2023/05/06 06:30:41;;;;;;;;;0.67;0.67;;;;;19.37;60.07;99906.91;5078902;27;45444;-73
2023/05/06 06:33:07;;;;;;;;;2.00;2.00;;;;;19.89;59.23;99926.34;5079132;27;45444;-73
2023/05/06 06:35:33;;;;;;;;;8.67;5.33;;;;;20.31;58.58;99921.13;5085367;27;47568;-74
2023/05/06 06:37:59;;;;;;;;;3.33;3.33;;;;;20.85;57.37;99918.28;5078776;27;45594;-74
2023/05/06 06:40:24;;;;;;;;;4.33;4.33;;;;;21.07;56.19;99896.53;5077273;28;45449;-74
2023/05/06 06:42:50;;;;;;;;;4.00;3.67;;;;;21.60;56.10;99912.09;5079033;27;45423;-74
2023/05/06 06:45:16;;;;;;;;;5.00;5.00;;;;;21.85;55.23;99902.56;5084192;27;46509;-74
2023/05/06 06:47:41;;;;;;;;;5.33;5.33;;;;;22.22;53.32;99900.69;5083824;27;45322;-74
2023/05/06 06:50:07;;;;;;;;;7.00;6.00;;;;;22.83;53.15;99904.22;5089556;27;45326;-73
2023/05/06 06:52:36;;;;;;;;;15.25;14.75;;;;;22.82;51.71;99897.16;5078442;27;45499;-74
2023/05/06 06:55:02;;;;;;;;;10.67;10.33;;;;;23.17;51.43;99924.50;5077752;28;46229;-74
2023/05/06 06:57:27;;;;;;;;;10.75;10.50;;;;;23.21;51.58;99926.16;5077611;27;45493;-73
2023/05/06 06:59:54;;;;;;;;;4.00;3.00;;;;;23.22;52.26;99919.06;5078875;27;45513;-73
2023/05/06 07:02:20;;;;;;;;;4.00;3.00;;;;;23.20;53.05;99921.75;5078578;27;45463;-73
2023/05/06 07:04:46;;;;;;;;;2.00;2.00;;;;;23.16;52.66;99913.94;5094614;27;45671;-73
2023/05/06 07:07:11;;;;;;;;;2.33;2.33;;;;;23.19;51.45;99917.34;5078789;28;45437;-73
2023/05/06 07:09:38;;;;;;;;;3.00;3.00;;;;;23.23;51.14;99918.97;5078573;27;45350;-72
2023/05/06 07:12:05;;;;;;;;;7.00;6.00;;;;;23.67;49.23;99933.56;5077966;27;45480;-73
2023/05/06 07:14:31;;;;;;;;;4.00;3.67;;;;;24.68;49.42;99930.00;5076285;28;45637;-72
2023/05/06 07:16:59;;;;;;;;;3.00;3.00;;;;;26.61;47.33;99904.13;5093501;27;45434;-73
2023/05/06 07:19:26;;;;;;;;;3.00;3.00;;;;;28.62;42.69;99922.66;5074368;28;45631;-72
2023/05/06 07:21:52;;;;;;;;;3.00;3.00;;;;;29.28;41.36;99951.25;5076426;28;45574;-74
2023/05/06 07:24:17;;;;;;;;;6.33;6.00;;;;;29.09;40.52;99841.16;5091350;27;45514;-72
2023/05/06 07:26:44;;;;;;;;;3.67;3.33;;;;;29.37;39.39;99889.78;5076215;28;45462;-72
2023/05/06 07:29:10;;;;;;;;;1.67;1.00;;;;;28.93;39.91;99899.47;5076611;28;45495;-73
2023/05/06 07:31:35;;;;;;;;;2.67;2.67;;;;;29.14;39.64;99943.97;5076549;28;45491;-73
2023/05/06 07:34:01;;;;;;;;;4.00;3.00;;;;;29.61;39.78;99917.09;5095525;27;46366;-73
2023/05/06 07:36:28;;;;;;;;;2.00;2.00;;;;;29.27;38.99;99881.41;5090774;27;45372;-74
2023/05/06 07:38:54;;;;;;;;;3.00;3.00;;;;;29.23;37.68;99917.53;5091947;27;45451;-73
2023/05/06 07:41:20;;;;;;;;;3.00;3.00;;;;;28.35;39.39;99869.47;5072091;27;45498;-74
2023/05/06 07:43:45;;;;;;;;;4.00;3.00;;;;;28.47;41.56;99928.84;5072021;27;46611;-72
2023/05/06 07:46:11;;;;;;;;;3.00;3.00;;;;;28.25;42.05;99951.50;5067416;27;46209;-73
2023/05/06 07:48:37;;;;;;;;;4.00;3.33;;;;;28.00;44.02;99948.34;5077178;28;45401;-71
2023/05/06 07:51:06;;;;;;;;;3.67;3.67;;;;;27.90;43.13;99967.59;5076815;28;45534;-72
2023/05/06 07:53:31;;;;;;;;;3.00;3.00;;;;;27.84;43.30;99958.97;5076449;28;45460;-72
2023/05/06 07:56:00;;;;;;;;;3.00;2.00;;;;;27.86;43.41;99962.44;5077068;28;45547;-71
2023/05/06 07:58:27;;;;;;;;;3.00;3.00;;;;;27.60;43.06;99899.38;5076487;28;45538;-71
2023/05/06 08:00:53;;;;;;;;;3.67;3.00;;;;;28.14;44.14;99954.72;5075896;28;45652;-71
2023/05/06 08:03:18;;;;;;;;;10.67;9.00;;;;;27.94;44.22;99942.34;5075151;28;46428;-71
2023/05/06 08:05:44;;;;;;;;;4.00;2.00;;;;;27.86;43.63;99946.34;5072409;28;45470;-71
2023/05/06 08:08:13;;;;;;;;;3.67;3.33;;;;;27.79;44.01;99935.03;5076982;28;45576;-71
2023/05/06 08:10:39;;;;;;;;;3.00;3.00;;;;;27.60;43.57;99910.13;5064866;28;45307;-71
2023/05/06 08:13:08;;;;;;;;;3.00;3.00;;;;;28.53;42.88;99921.34;5072953;28;45472;-71
2023/05/06 08:15:34;;;;;;;;;3.33;3.00;;;;;30.28;39.76;99918.44;5073032;28;45388;-71
2023/05/06 08:18:00;;;;;;;;;7.67;7.00;;;;;30.91;37.22;99940.59;5091524;27;45620;-72
2023/05/06 08:20:26;;;;;;;;;4.00;3.67;;;;;30.82;37.42;99933.06;5074696;27;45577;-71
2023/05/06 08:22:54;;;;;;;;;3.00;3.00;;;;;31.68;36.21;99946.38;5072636;28;47837;-72
2023/05/06 08:25:20;;;;;;;;;1.67;1.67;;;;;32.35;33.94;99954.41;5070839;28;45862;-72
2023/05/06 08:27:46;;;;;;;;;1.67;1.67;;;;;32.46;33.95;99948.22;5087695;27;45519;-71
2023/05/06 08:30:12;;;;;;;;;1.67;1.67;;;;;32.65;34.27;99947.78;5107974;27;45338;-72
2023/05/06 08:32:38;;;;;;;;;4.00;3.00;;;;;32.55;33.80;99963.84;5076033;27;45680;-73
2023/05/06 08:35:06;;;;;;;;;1.00;1.00;;;;;32.09;35.51;99945.38;5072839;28;45439;-72
2023/05/06 08:37:32;;;;;;;;;2.00;1.67;;;;;31.95;35.41;99956.25;5068979;28;45490;-71
2023/05/06 08:39:58;;;;;;;;;3.33;3.33;;;;;31.71;35.71;99943.44;5067494;28;45654;-71
2023/05/06 08:42:25;;;;;;;;;2.00;1.50;;;;;31.70;35.13;99952.53;5072393;28;46872;-71
2023/05/06 08:44:51;;;;;;;;;2.00;2.00;;;;;31.73;35.18;99949.59;5076200;28;45593;-72
2023/05/06 08:47:19;;;;;;;;;1.67;1.67;;;;;32.04;35.03;99947.56;5075787;27;45516;-70
2023/05/06 08:49:45;;;;;;;;;3.00;3.00;;;;;32.17;35.37;99952.97;5074280;28;45565;-71
2023/05/06 08:52:11;;;;;;;;;2.00;2.00;;;;;32.41;34.73;99944.97;5075499;28;45576;-71
2023/05/06 08:54:37;;;;;;;;;3.00;2.00;;;;;33.08;33.00;99952.78;5075984;27;45772;-71
2023/05/06 08:57:07;;;;;;;;;2.33;2.33;;;;;33.64;31.22;99955.84;5076147;28;46967;-71
2023/05/06 08:59:33;;;;;;;;;1.33;1.33;;;;;33.98;31.96;99958.72;5076166;27;45393;-72
2023/05/06 09:02:00;;;;;;;;;1.00;1.00;;;;;34.76;30.25;99943.59;5074892;27;46262;-72
2023/05/06 09:04:26;;;;;;;;;4.00;4.00;;;;;35.45;28.43;99956.94;5075543;27;45245;-72
2023/05/06 09:06:52;;;;;;;;;2.67;2.67;;;;;35.83;28.55;99958.31;5063993;28;45619;-71
2023/05/06 09:09:18;;;;;;;;;1.33;1.33;;;;;36.55;28.07;99962.06;5074440;27;45531;-71
2023/05/06 09:11:44;;;;;;;;;5.33;4.33;;;;;36.68;27.60;99952.84;5076240;27;46468;-71
2023/05/06 09:14:15;;;;;;;;;1.67;1.67;;;;;36.62;27.56;99962.38;5072804;27;45794;-71
2023/05/06 09:16:43;;;;;;;;;2.00;2.00;;;;;36.69;27.56;99954.56;5070814;27;45568;-72
2023/05/06 09:19:08;;;;;;;;;1.00;1.00;;;;;37.07;27.35;99972.03;5075499;27;45487;-72
2023/05/06 09:21:40;;;;;;;;;3.00;2.00;;;;;37.17;27.80;99972.97;5074966;27;46097;-71
2023/05/06 09:24:07;;;;;;;;;2.00;2.00;;;;;36.79;28.13;99972.66;5075536;27;45335;-71
2023/05/06 09:26:35;;;;;;;;;4.00;3.00;;;;;36.51;27.72;99986.94;5074280;28;45326;-70
2023/05/06 09:29:01;;;;;;;;;3.00;2.00;;;;;36.54;28.15;99970.38;5079427;28;45396;-71
2023/05/06 09:31:27;;;;;;;;;2.33;2.00;;;;;36.47;28.10;99966.44;5078748;28;46443;-72
2023/05/06 09:33:55;;;;;;;;;4.00;3.00;;;;;36.63;27.62;99977.72;5078910;27;45357;-71
2023/05/06 09:36:22;;;;;;;;;3.00;3.00;;;;;36.66;27.54;99973.91;5078207;28;45359;-71
2023/05/06 09:38:48;;;;;;;;;4.00;2.67;;;;;36.72;28.14;99985.09;5065030;28;45483;-71
2023/05/06 09:41:15;;;;;;;;;3.00;3.00;;;;;36.46;28.09;99972.91;5076037;27;46418;-71
2023/05/06 09:43:46;;;;;;;;;3.00;2.00;;;;;36.16;28.85;99988.19;5078430;28;45438;-71
2023/05/06 09:46:12;;;;;;;;;3.00;3.00;;;;;35.45;29.05;99989.53;5077619;28;45364;-71
2023/05/06 09:48:38;;;;;;;;;3.33;3.33;;;;;34.86;29.85;99974.41;5077427;28;45416;-71
2023/05/06 09:51:06;;;;;;;;;4.00;4.00;;;;;34.13;30.87;99981.03;5077263;28;46173;-71
2023/05/06 09:53:34;;;;;;;;;3.00;2.33;;;;;34.01;31.41;99982.00;5079058;28;45501;-72
2023/05/06 09:56:03;;;;;;;;;4.00;3.00;;;;;34.48;31.05;99980.19;5078874;27;45711;-72
2023/05/06 09:58:30;;;;;;;;;2.67;2.67;;;;;34.96;29.94;99993.53;5076613;28;45331;-71
2023/05/06 10:00:57;;;;;;;;;4.00;4.00;;;;;35.15;30.21;100008.31;5078810;28;46040;-72
2023/05/06 10:03:23;;;;;;;;;5.00;4.00;;;;;35.56;30.15;99995.91;5075903;28;45586;-72
2023/05/06 10:05:49;;;;;;;;;4.00;4.00;;;;;35.70;29.44;100003.81;5078315;27;45504;-72
2023/05/06 10:08:17;;;;;;;;;8.00;8.00;;;;;35.45;29.15;100004.94;5074059;28;45482;-71
2023/05/06 10:10:47;;;;;;;;;8.00;8.00;;;;;35.98;28.69;100009.63;5074565;28;46153;-72
2023/05/06 10:13:15;;;;;;;;;6.00;5.00;;;;;36.56;28.73;100020.91;5076748;27;45542;-71
2023/05/06 10:15:44;;;;;;;;;6.67;6.67;;;;;35.74;28.23;100024.28;5078090;28;45483;-72
2023/05/06 10:18:10;;;;;;;;;5.33;5.00;;;;;35.45;29.41;100019.41;5069933;28;46045;-72
2023/05/06 10:20:40;;;;;;;;;4.00;4.00;;;;;35.71;28.65;100027.25;5077890;27;46246;-71
2023/05/06 10:23:23;;;;;;;;;6.00;5.00;;;;;36.21;27.91;100030.31;5077980;28;45431;-73
2023/05/06 10:25:52;;;;;;;;;6.67;6.67;;;;;36.57;26.70;100030.81;5073407;28;45454;-72
2023/05/06 10:28:22;;;;;;;;;9.00;8.67;;;;;36.02;26.28;100021.97;5077549;28;45360;-73
2023/05/06 10:30:50;;;;;;;;;1.33;1.33;;;;;36.17;26.42;100028.84;5073841;28;46322;-73
2023/05/06 10:33:16;;;;;;;;;4.67;4.67;;;;;35.63;26.86;100013.41;5077081;28;45387;-72
2023/05/06 10:35:54;;;;;;;;;4.67;4.67;;;;;35.93;27.14;100039.88;5077133;28;45469;-73
2023/05/06 10:38:33;;;;;;;;;4.00;4.00;;;;;34.90;27.16;100045.59;5064377;28;45380;-73
2023/05/06 10:41:00;;;;;;;;;5.00;5.00;;;;;34.82;26.85;100034.50;5078119;28;47045;-74
2023/05/06 10:43:31;;;;;;;;;3.67;3.00;;;;;34.36;27.36;100046.19;5091434;27;45395;-73
2023/05/06 10:46:13;;;;;;;;;2.33;2.00;;;;;33.72;27.02;100050.09;5077769;27;45533;-74
2023/05/06 10:49:09;;;;;;;;;2.00;2.00;;;;;33.23;27.65;100059.13;5070612;28;45376;-73
2023/05/06 10:51:38;;;;;;;;;3.00;3.00;;;;;32.93;28.84;100054.91;5075826;28;46312;-72
2023/05/06 10:54:17;;;;;;;;;3.00;3.00;;;;;33.14;28.18;100054.34;5077861;28;45415;-72
2023/05/06 10:56:49;;;;;;;;;3.67;3.00;;;;;33.24;28.45;100050.84;5077254;28;45471;-74
2023/05/06 10:59:20;;;;;;;;;2.00;2.00;;;;;32.21;29.22;100039.13;5078080;28;46066;-74
2023/05/06 11:01:53;;;;;;;;;3.33;3.00;;;;;31.93;30.04;100037.38;5077200;27;46353;-73
2023/05/06 11:04:19;;;;;;;;;3.33;3.00;;;;;31.31;30.80;100013.56;5077160;28;45922;-72
2023/05/06 11:06:48;;;;;;;;;3.67;3.33;;;;;31.79;30.86;100041.00;5076075;28;45595;-72
2023/05/06 11:09:21;;;;;;;;;5.00;4.00;;;;;31.84;31.00;100049.69;5075937;28;45570;-72
2023/05/06 11:12:05;;;;;;;;;3.00;3.00;;;;;31.91;31.34;100042.91;5076315;27;45554;-73
2023/05/06 11:14:34;;;;;;;;;3.00;3.00;;;;;31.57;30.95;100049.66;5077978;28;45432;-73
2023/05/06 11:17:04;;;;;;;;;4.00;4.00;;;;;31.13;31.43;100042.59;5077017;27;45446;-72
2023/05/06 11:19:35;;;;;;;;;5.00;5.00;;;;;30.76;32.99;100052.97;5077298;27;45955;-73
2023/05/06 11:22:03;;;;;;;;;5.00;5.00;;;;;30.06;33.22;100048.19;5076704;28;46205;-73
2023/05/06 11:24:40;;;;;;;;;6.33;5.67;;;;;30.23;33.68;100055.25;5077005;28;45381;-73
2023/05/06 11:27:06;;;;;;;;;7.00;5.67;;;;;30.04;33.55;100042.00;5077713;28;45453;-74
2023/05/06 11:29:32;;;;;;;;;4.33;3.00;;;;;30.13;33.92;100057.59;5077263;28;45440;-73